Flight Track Log - Related Links

Times and Time Zones

All times are in EDT time to prevent confusion due to time zone crossing. See the TAM3902 flight status page for this flight to view local times or setup timezone preferences in your user account.

Time Position Orientation Groundspeed Altitude Reporting Facility
EDT Latitude Longitude Course Direction KTS MPH feet Rate Location/Type
Mon 04:37:00 AM -23.5101 -46.0574 78° East  Level Estimated
Mon 04:38:00 AM -23.4932 -45.9721 78° East  Level Estimated
Mon 04:39:00 AM -23.4764 -45.8868 78° East  Level Estimated
Mon 04:40:00 AM -23.4594 -45.8015 78° East  Level Estimated
Mon 04:41:00 AM -23.4424 -45.7162 78° East  Level Estimated
Mon 04:42:00 AM -23.4254 -45.6310 78° East  Level Estimated
Mon 04:43:00 AM -23.4083 -45.5458 78° East  Level Estimated
Mon 04:44:00 AM -23.3912 -45.4606 78° East  Level Estimated
Mon 04:45:00 AM -23.3740 -45.3754 78° East  Level Estimated
Mon 04:46:00 AM -23.3568 -45.2902 78° East  Level Estimated
Mon 04:47:00 AM -23.3396 -45.2051 78° East  Level Estimated
Mon 04:48:00 AM -23.3223 -45.1200 78° East  Level Estimated
Mon 04:49:00 AM -23.3049 -45.0349 77° East  Level Estimated
Mon 04:50:00 AM -23.2875 -44.9498 77° East  Level Estimated
Mon 04:51:00 AM -23.2701 -44.8648 77° East  Level Estimated
Mon 04:52:00 AM -23.2526 -44.7798 77° East  Level Estimated
Mon 04:53:00 AM -23.2350 -44.6948 77° East  Level Estimated
Mon 04:54:00 AM -23.2175 -44.6098 77° East  Level Estimated
Mon 04:55:00 AM -23.1998 -44.5248 77° East  Level Estimated
Mon 04:56:00 AM -23.1822 -44.4399 77° East  Level Estimated
Mon 04:57:00 AM -23.1644 -44.3550 77° East  Level Estimated
Mon 04:58:00 AM -23.1467 -44.2701 77° East  Level Estimated
Mon 04:59:00 AM -23.1289 -44.1852 77° East  Level Estimated
Mon 05:00:00 AM -23.1110 -44.1004 77° East  Level Estimated
Mon 05:01:00 AM -23.0931 -44.0156 77° East  Level Estimated
Mon 05:02:00 AM -23.0752 -43.9308 77° East  Level Estimated
Mon 05:03:00 AM -23.0572 -43.8460 77° East  Level Estimated
Mon 05:04:00 AM -23.0392 -43.7612 77° East  Level Estimated
Mon 05:05:00 AM -23.0211 -43.6765 77° East  Level Estimated
Mon 05:06:00 AM -23.0030 -43.5918 77° East  Level Estimated
Mon 05:07:00 AM -22.9848 -43.5071 77° East  Level Estimated
Mon 05:08:00 AM -22.9666 -43.4225 77° East  Level Estimated
Mon 05:09:00 AM -22.9483 -43.3378 77° East  Level Estimated
Mon 05:10:00 AM -22.9300 -43.2532 77° East  Level Estimated
Mon 05:11:00 AM -22.9116 -43.1686 77° East  Level Estimated
Mon 05:12:00 AM -22.9105 -43.1631 77° East  Level Estimated
Mon 05:13:00 AM -22.9105 -43.1631 250° West  Level Estimated
Mon 05:14:00 AM -22.9105 -43.1631 250° West  Level Estimated
Mon 05:15:00 AM -22.9105 -43.1631 250° West  Level Estimated
Mon 05:16:00 AM -22.9105 -43.1631 250° West  Level Estimated
Mon 05:17:00 AM -22.9105 -43.1631 250° West  Level Estimated
Mon 05:18:00 AM -22.9105 -43.1631 250° West  Level Estimated
Mon 05:19:00 AM -22.9105 -43.1631 250° West  Level Estimated
Mon 05:20:00 AM -22.9105 -43.1631 250° West  Level Estimated
Mon 05:21:00 AM -22.9105 -43.1631 250° West  Level Estimated
Mon 05:22:00 AM -22.9105 -43.1631 250° West  Level Estimated
Mon 05:23:00 AM -22.9105 -43.1631 250° West  Level Estimated
Mon 05:24:00 AM -22.9105 -43.1631 250° West  Level Estimated
Mon 05:25:00 AM -22.9105 -43.1631 250° West  Level Estimated
Mon 05:26:00 AM -22.9105 -43.1631 250° West  Level Estimated
Mon 05:27:00 AM -22.9105 -43.1631 250° West  Level Estimated

Login

Don't have an account? Register now (free) for customized features, flight alerts, and more!